Main page
METAR-TAF:

METAR-TAF

Airports :

Islay Airport

Islay, Scotland

latitude: 55-40-55N, longitude: 006-15-24W, elevation: 16 m

Current weather observation

The report was made 19 minutes ago, at 18:50 UTC
Wind 14 kt from the South/Southeast, varying between East/Southeast and South
Temperature 11°C
Humidity 82%
Pressure 1011 hPa
Visibility 10 km or more
Few clouds at a height of 2100 ft
Scattered clouds at a height of 2900 ft

METAR: EGPI 131850Z 15014KT 120V190 9999 FEW021 SCT029 11/08 Q1011

Time: 19:09 (19:09 UTC)

Forecast

The report was made 5 hours and 13 minutes ago, at 13:56 UTC
Forecast valid from 13 at 15 UTC to 13 at 19 UTC
Wind 18 kt from the South/Southeast
Visibility 10 km or more
Few clouds at a height of 2000 ft

TAF: EGPI 131356Z 1315/1319 16018KT 9999 FEW020

Weather observations and forecasts of more than 4000 airports (METAR and TAF reports).

The available stations are represented by yellow and red dots on the map.

Hover mouse over dot to see the name of the station.

Then click to see weather observations and forecasts.

To change the map : click on the green buttons with a black cross to zoom in, on the green button with a dash to zoom out, or on the green arrows for adjacent maps.


METAR-TAF: